createdAt,value
2018-12-13T00:00:56.041Z,993.84
2018-12-13T00:01:56.026Z,993.84
2018-12-13T00:02:56.013Z,993.85
2018-12-13T00:03:56.000Z,993.84
2018-12-13T00:04:55.991Z,993.84
2018-12-13T00:05:55.977Z,993.87
2018-12-13T00:06:55.972Z,993.81
2018-12-13T00:07:55.956Z,993.82
2018-12-13T00:08:55.945Z,993.81
2018-12-13T00:09:55.932Z,993.81
2018-12-13T00:10:55.924Z,993.86
2018-12-13T00:11:55.911Z,993.84
2018-12-13T00:12:55.901Z,993.85
2018-12-13T00:13:55.893Z,993.82
2018-12-13T00:14:55.881Z,993.84
2018-12-13T00:15:55.870Z,993.84
2018-12-13T00:16:55.856Z,993.82
2018-12-13T00:17:55.846Z,993.8
2018-12-13T00:18:55.837Z,993.79
2018-12-13T00:19:55.825Z,993.82
2018-12-13T00:20:55.815Z,993.79
2018-12-13T00:21:55.807Z,993.8
2018-12-13T00:22:55.792Z,993.76
2018-12-13T00:23:55.781Z,993.73
2018-12-13T00:24:55.772Z,993.76
2018-12-13T00:25:55.759Z,993.7
2018-12-13T00:26:55.747Z,993.7
2018-12-13T00:27:55.738Z,993.67
2018-12-13T00:28:55.725Z,993.69
2018-12-13T00:29:55.713Z,993.71
2018-12-13T00:30:55.708Z,993.65
2018-12-13T00:31:55.692Z,993.64
2018-12-13T00:32:55.681Z,993.63
2018-12-13T00:33:55.677Z,993.57
2018-12-13T00:34:55.662Z,993.59
2018-12-13T00:35:55.653Z,993.61
2018-12-13T00:36:55.638Z,993.55
2018-12-13T00:37:55.628Z,993.57
2018-12-13T00:38:55.617Z,993.6
2018-12-13T00:39:55.605Z,993.58
2018-12-13T00:40:55.594Z,993.61
2018-12-13T00:41:55.585Z,993.59
2018-12-13T00:42:55.572Z,993.56
2018-12-13T00:43:55.560Z,993.54
2018-12-13T00:44:55.565Z,993.5
2018-12-13T00:45:55.540Z,993.49
2018-12-13T00:46:55.528Z,993.46
2018-12-13T00:47:55.521Z,993.48
2018-12-13T00:48:57.115Z,993.44
2018-12-13T00:49:55.495Z,993.47
2018-12-13T00:50:55.484Z,993.44
2018-12-13T00:51:55.477Z,993.42
2018-12-13T00:52:55.464Z,993.42
2018-12-13T00:53:55.451Z,993.4
2018-12-13T00:54:55.448Z,993.42
2018-12-13T00:55:55.435Z,993.37
2018-12-13T00:56:55.418Z,993.38
2018-12-13T00:57:55.406Z,993.34
2018-12-13T00:58:55.398Z,993.36
2018-12-13T00:59:55.390Z,993.38
2018-12-13T01:00:55.374Z,993.32
2018-12-13T01:01:55.365Z,993.34
2018-12-13T01:02:55.350Z,993.34
2018-12-13T01:03:55.340Z,993.38
2018-12-13T01:04:55.331Z,993.31
2018-12-13T01:05:55.321Z,993.34
2018-12-13T01:06:55.323Z,993.39
2018-12-13T01:07:55.295Z,993.37
2018-12-13T01:08:55.284Z,993.34
2018-12-13T01:09:55.272Z,993.35
2018-12-13T01:10:55.265Z,993.35
2018-12-13T01:11:55.249Z,993.36
2018-12-13T01:12:55.242Z,993.33
2018-12-13T01:13:55.231Z,993.34
2018-12-13T01:14:55.216Z,993.31
2018-12-13T01:15:55.208Z,993.3
2018-12-13T01:16:55.198Z,993.31
2018-12-13T01:17:55.189Z,993.34
2018-12-13T01:18:55.172Z,993.33
2018-12-13T01:19:55.161Z,993.33
2018-12-13T01:20:55.150Z,993.3
2018-12-13T01:21:55.146Z,993.26
2018-12-13T01:22:55.130Z,993.27
2018-12-13T01:23:55.116Z,993.31
2018-12-13T01:24:55.104Z,993.31
2018-12-13T01:25:55.094Z,993.34
2018-12-13T01:26:55.083Z,993.32
2018-12-13T01:27:55.081Z,993.35
2018-12-13T01:28:55.073Z,993.34
2018-12-13T01:29:55.050Z,993.31
2018-12-13T01:30:55.043Z,993.3
2018-12-13T01:31:55.061Z,993.31
2018-12-13T01:32:55.049Z,993.29
2018-12-13T01:33:55.020Z,993.33
2018-12-13T01:34:55.013Z,993.3
2018-12-13T01:35:55.035Z,993.33
2018-12-13T01:36:55.000Z,993.29
2018-12-13T01:37:54.990Z,993.3
2018-12-13T01:38:54.958Z,993.26
2018-12-13T01:39:54.955Z,993.28
2018-12-13T01:40:54.939Z,993.28
2018-12-13T01:41:54.955Z,993.24
2018-12-13T01:42:54.924Z,993.29
2018-12-13T01:43:54.942Z,993.23
2018-12-13T01:44:54.890Z,993.16
2018-12-13T01:45:54.878Z,993.13
2018-12-13T01:46:54.867Z,993.13
2018-12-13T01:47:54.850Z,993.14
2018-12-13T01:48:54.842Z,993.11
2018-12-13T01:49:54.822Z,993.12
2018-12-13T01:50:54.811Z,993.14
2018-12-13T01:51:54.807Z,993.1
2018-12-13T01:52:54.792Z,993.12
2018-12-13T01:53:54.781Z,993.09
2018-12-13T01:54:54.805Z,993.07
2018-12-13T01:55:54.752Z,993.08
2018-12-13T01:56:54.752Z,993.13
2018-12-13T01:57:54.736Z,993.13
2018-12-13T01:58:54.741Z,993.12
2018-12-13T01:59:54.731Z,993.13
2018-12-13T02:00:54.691Z,993.12
2018-12-13T02:01:54.694Z,993.08
2018-12-13T02:02:54.668Z,993.07
2018-12-13T02:03:54.658Z,993.02
2018-12-13T02:04:54.649Z,993.06
2018-12-13T02:05:54.634Z,993
2018-12-13T02:06:58.623Z,993.07
2018-12-13T02:07:54.614Z,993.05
2018-12-13T02:08:54.597Z,993.01
2018-12-13T02:09:54.586Z,993.02
2018-12-13T02:10:54.577Z,993.03
2018-12-13T02:11:54.575Z,992.96
2018-12-13T02:12:54.555Z,993.01
2018-12-13T02:13:54.541Z,992.98
2018-12-13T02:14:54.530Z,992.96
2018-12-13T02:15:54.516Z,992.92
2018-12-13T02:16:54.505Z,992.92
2018-12-13T02:17:54.494Z,992.89
2018-12-13T02:18:54.481Z,992.88
2018-12-13T02:19:54.477Z,992.85
2018-12-13T02:20:54.484Z,992.87
2018-12-13T02:21:54.447Z,992.84
2018-12-13T02:22:54.437Z,992.82
2018-12-13T02:23:54.422Z,992.82
2018-12-13T02:24:54.413Z,992.85
2018-12-13T02:25:54.402Z,992.83
2018-12-13T02:26:54.387Z,992.85
2018-12-13T02:27:54.383Z,992.84
2018-12-13T02:28:54.363Z,992.82
2018-12-13T02:29:54.366Z,992.83
2018-12-13T02:30:54.341Z,992.76
2018-12-13T02:31:54.333Z,992.77
2018-12-13T02:32:54.317Z,992.77
2018-12-13T02:33:54.303Z,992.81
2018-12-13T02:34:54.305Z,992.77
2018-12-13T02:35:54.283Z,992.76
2018-12-13T02:36:54.269Z,992.74
2018-12-13T02:37:54.257Z,992.74
2018-12-13T02:38:54.244Z,992.71
2018-12-13T02:39:54.237Z,992.72
2018-12-13T02:40:54.231Z,992.72
2018-12-13T02:41:54.216Z,992.74
2018-12-13T02:42:54.198Z,992.73
2018-12-13T02:43:54.189Z,992.72
2018-12-13T02:44:54.174Z,992.69
2018-12-13T02:45:54.164Z,992.67
2018-12-13T02:46:54.154Z,992.67
2018-12-13T02:47:54.139Z,992.69
2018-12-13T02:48:54.128Z,992.67
2018-12-13T02:49:54.121Z,992.67
2018-12-13T02:50:54.103Z,992.64
2018-12-13T02:51:54.093Z,992.67
2018-12-13T02:52:54.099Z,992.64
2018-12-13T02:53:54.069Z,992.64
2018-12-13T02:54:54.058Z,992.65
2018-12-13T02:55:54.046Z,992.65
2018-12-13T02:56:54.046Z,992.6
2018-12-13T02:57:54.026Z,992.63
2018-12-13T02:58:54.017Z,992.54
2018-12-13T02:59:53.999Z,992.55
2018-12-13T03:00:53.990Z,992.5
2018-12-13T03:01:53.979Z,992.49
2018-12-13T03:02:53.965Z,992.49
2018-12-13T03:03:53.954Z,992.43
2018-12-13T03:04:53.947Z,992.46
2018-12-13T03:05:53.934Z,992.49
2018-12-13T03:06:53.920Z,992.51
2018-12-13T03:07:53.909Z,992.5
2018-12-13T03:08:53.919Z,992.47
2018-12-13T03:09:53.887Z,992.47
2018-12-13T03:10:53.873Z,992.49
2018-12-13T03:11:53.862Z,992.49
2018-12-13T03:12:53.853Z,992.47
2018-12-13T03:13:53.838Z,992.48
2018-12-13T03:14:53.828Z,992.5
2018-12-13T03:15:53.816Z,992.44
2018-12-13T03:16:53.808Z,992.43
2018-12-13T03:17:53.798Z,992.46
2018-12-13T03:18:53.780Z,992.43
2018-12-13T03:19:53.771Z,992.5
2018-12-13T03:20:53.763Z,992.47
2018-12-13T03:21:53.746Z,992.43
2018-12-13T03:22:53.738Z,992.47
2018-12-13T03:23:53.723Z,992.46
2018-12-13T03:24:53.713Z,992.46
2018-12-13T03:25:53.701Z,992.48
2018-12-13T03:26:53.713Z,992.42
2018-12-13T03:27:53.681Z,992.36
2018-12-13T03:28:53.665Z,992.42
2018-12-13T03:29:53.656Z,992.42
2018-12-13T03:30:53.652Z,992.35
2018-12-13T03:31:53.688Z,992.4
2018-12-13T03:32:53.631Z,992.36
2018-12-13T03:33:53.611Z,992.33
2018-12-13T03:34:53.599Z,992.31
2018-12-13T03:35:53.592Z,992.29
2018-12-13T03:36:53.582Z,992.32
2018-12-13T03:37:53.566Z,992.34
2018-12-13T03:38:53.554Z,992.32
2018-12-13T03:39:53.541Z,992.29
2018-12-13T03:40:53.531Z,992.33
2018-12-13T03:41:53.520Z,992.32
2018-12-13T03:42:53.509Z,992.25
2018-12-13T03:43:53.496Z,992.27
2018-12-13T03:44:53.483Z,992.28
2018-12-13T03:45:53.473Z,992.26
2018-12-13T03:46:53.457Z,992.25
2018-12-13T03:47:53.449Z,992.24
2018-12-13T03:48:53.437Z,992.19
2018-12-13T03:49:53.428Z,992.21
2018-12-13T03:50:53.415Z,992.21
2018-12-13T03:51:53.403Z,992.23
2018-12-13T03:52:53.390Z,992.14
2018-12-13T03:53:53.377Z,992.17
2018-12-13T03:54:53.388Z,992.17
2018-12-13T03:55:53.354Z,992.16
2018-12-13T03:56:53.359Z,992.14
2018-12-13T03:57:53.349Z,992.13
2018-12-13T03:58:53.322Z,992.13
2018-12-13T03:59:53.313Z,992.12
2018-12-13T04:00:53.295Z,992.11
2018-12-13T04:01:53.283Z,992.11
2018-12-13T04:02:53.269Z,992.06
2018-12-13T04:03:53.265Z,992.06
2018-12-13T04:04:53.253Z,992.07
2018-12-13T04:05:53.234Z,992.06
2018-12-13T04:06:53.225Z,992.06
2018-12-13T04:07:53.225Z,992.06
2018-12-13T04:08:53.199Z,992.09
2018-12-13T04:09:53.185Z,992.1
2018-12-13T04:10:53.178Z,992.07
2018-12-13T04:11:53.167Z,992.04
2018-12-13T04:12:53.149Z,992.07
2018-12-13T04:13:53.137Z,992.08
2018-12-13T04:14:53.124Z,992.08
2018-12-13T04:15:53.125Z,992.03
2018-12-13T04:16:53.100Z,992
2018-12-13T04:17:53.089Z,991.99
2018-12-13T04:18:53.080Z,992.01
2018-12-13T04:19:53.065Z,992
2018-12-13T04:20:53.054Z,991.93
2018-12-13T04:21:53.046Z,991.9
2018-12-13T04:22:53.032Z,991.92
2018-12-13T04:23:53.023Z,991.81
2018-12-13T04:24:53.008Z,991.84
2018-12-13T04:25:52.995Z,991.81
2018-12-13T04:26:52.986Z,991.78
2018-12-13T04:27:52.971Z,991.77
2018-12-13T04:28:52.968Z,991.77
2018-12-13T04:29:52.949Z,991.76
2018-12-13T04:30:52.936Z,991.71
2018-12-13T04:31:52.924Z,991.72
2018-12-13T04:32:52.913Z,991.7
2018-12-13T04:33:52.904Z,991.67
2018-12-13T04:34:52.889Z,991.69
2018-12-13T04:35:52.875Z,991.66
2018-12-13T04:36:52.868Z,991.69
2018-12-13T04:37:52.857Z,991.66
2018-12-13T04:38:52.844Z,991.68
2018-12-13T04:39:52.835Z,991.61
2018-12-13T04:40:52.822Z,991.61
2018-12-13T04:41:52.809Z,991.64
2018-12-13T04:42:52.806Z,991.63
2018-12-13T04:43:52.791Z,991.71
2018-12-13T04:44:52.774Z,991.63
2018-12-13T04:45:52.768Z,991.63
2018-12-13T04:46:52.753Z,991.62
2018-12-13T04:47:52.737Z,991.6
2018-12-13T04:48:52.728Z,991.58
2018-12-13T04:49:52.715Z,991.57
2018-12-13T04:50:52.702Z,991.56
2018-12-13T04:51:52.694Z,991.57
2018-12-13T04:52:52.684Z,991.55
2018-12-13T04:53:52.676Z,991.49
2018-12-13T04:54:52.657Z,991.51
2018-12-13T04:55:52.650Z,991.47
2018-12-13T04:56:52.633Z,991.47
2018-12-13T04:57:52.621Z,991.47
2018-12-13T04:58:52.611Z,991.45
2018-12-13T04:59:52.597Z,991.45
2018-12-13T05:00:52.591Z,991.44
2018-12-13T05:01:52.578Z,991.48
2018-12-13T05:02:52.565Z,991.49
2018-12-13T05:03:52.554Z,991.49
2018-12-13T05:04:52.546Z,991.5
2018-12-13T05:05:52.539Z,991.48
2018-12-13T05:06:52.530Z,991.46
2018-12-13T05:07:52.515Z,991.47
2018-12-13T05:08:52.498Z,991.45
2018-12-13T05:09:52.487Z,991.44
2018-12-13T05:10:52.488Z,991.4
2018-12-13T05:11:52.474Z,991.43
2018-12-13T05:12:52.456Z,991.42
2018-12-13T05:13:52.440Z,991.4
2018-12-13T05:14:52.431Z,991.37
2018-12-13T05:15:52.423Z,991.35
2018-12-13T05:16:52.407Z,991.34
2018-12-13T05:17:52.414Z,991.32
2018-12-13T05:18:52.387Z,991.28
2018-12-13T05:19:52.372Z,991.24
2018-12-13T05:20:52.366Z,991.24
2018-12-13T05:21:52.350Z,991.21
2018-12-13T05:22:52.357Z,991.24
2018-12-13T05:23:52.330Z,991.29
2018-12-13T05:24:52.318Z,991.23
2018-12-13T05:25:52.312Z,991.23
2018-12-13T05:26:52.294Z,991.21
2018-12-13T05:27:52.282Z,991.16
2018-12-13T05:28:52.271Z,991.24
2018-12-13T05:29:52.260Z,991.25
2018-12-13T05:30:52.249Z,991.21
2018-12-13T05:31:52.246Z,991.26
2018-12-13T05:32:52.225Z,991.18
2018-12-13T05:33:52.223Z,991.23
2018-12-13T05:34:52.202Z,991.22
2018-12-13T05:35:52.193Z,991.22
2018-12-13T05:36:52.190Z,991.24
2018-12-13T05:37:52.167Z,991.23
2018-12-13T05:38:52.157Z,991.21
2018-12-13T05:39:52.157Z,991.25
2018-12-13T05:40:52.138Z,991.26
2018-12-13T05:41:52.119Z,991.17
2018-12-13T05:42:52.112Z,991.17
2018-12-13T05:43:52.105Z,991.21
2018-12-13T05:44:52.103Z,991.24
2018-12-13T05:45:52.078Z,991.18
2018-12-13T05:46:52.063Z,991.17
2018-12-13T05:47:52.052Z,991.18
2018-12-13T05:48:52.039Z,991.2
2018-12-13T05:49:52.038Z,991.19
2018-12-13T05:50:52.021Z,991.21
2018-12-13T05:51:52.006Z,991.19
2018-12-13T05:52:51.999Z,991.22
2018-12-13T05:53:51.987Z,991.23
2018-12-13T05:54:51.972Z,991.24
2018-12-13T05:55:58.279Z,991.27
2018-12-13T05:56:51.952Z,991.29
2018-12-13T05:57:51.941Z,991.25
2018-12-13T05:58:51.929Z,991.25
2018-12-13T05:59:51.919Z,991.25
2018-12-13T06:00:51.907Z,991.21
2018-12-13T06:01:51.898Z,991.21
2018-12-13T06:02:51.885Z,991.26
2018-12-13T06:03:51.874Z,991.28
2018-12-13T06:04:51.862Z,991.29
2018-12-13T06:05:51.851Z,991.3
2018-12-13T06:06:51.839Z,991.3
2018-12-13T06:07:54.761Z,991.27
2018-12-13T06:08:51.825Z,991.28
2018-12-13T06:09:51.802Z,991.2
2018-12-13T06:10:51.795Z,991.21
2018-12-13T06:11:51.783Z,991.28
2018-12-13T06:12:51.770Z,991.21
2018-12-13T06:13:51.771Z,991.22
2018-12-13T06:14:51.751Z,991.21
2018-12-13T06:15:51.737Z,991.18
2018-12-13T06:16:51.725Z,991.22
2018-12-13T06:17:51.717Z,991.19
2018-12-13T06:18:51.705Z,991.19
2018-12-13T06:19:51.695Z,991.14
2018-12-13T06:20:51.682Z,991.16
2018-12-13T06:21:51.675Z,991.15
2018-12-13T06:22:51.666Z,991.15
2018-12-13T06:23:51.655Z,991.16
2018-12-13T06:24:51.640Z,991.16
2018-12-13T06:25:51.635Z,991.23
2018-12-13T06:26:51.617Z,991.19
2018-12-13T06:27:51.603Z,991.18
2018-12-13T06:28:51.593Z,991.18
2018-12-13T06:29:51.582Z,991.18
2018-12-13T06:30:51.571Z,991.19
2018-12-13T06:31:51.559Z,991.21
2018-12-13T06:32:51.549Z,991.22
2018-12-13T06:33:51.548Z,991.24
2018-12-13T06:34:51.526Z,991.22
2018-12-13T06:35:51.515Z,991.24
2018-12-13T06:36:51.504Z,991.24
2018-12-13T06:37:51.496Z,991.22
2018-12-13T06:38:51.483Z,991.27
2018-12-13T06:39:51.470Z,991.23
2018-12-13T06:40:51.462Z,991.23
2018-12-13T06:41:51.450Z,991.27
2018-12-13T06:42:51.439Z,991.25
2018-12-13T06:43:52.302Z,991.3
2018-12-13T06:44:51.416Z,991.27
2018-12-13T06:45:51.407Z,991.27
2018-12-13T06:46:51.394Z,991.27
2018-12-13T06:47:51.385Z,991.24
2018-12-13T06:48:51.372Z,991.24
2018-12-13T06:49:51.361Z,991.25
2018-12-13T06:50:51.351Z,991.29
2018-12-13T06:51:51.338Z,991.27
2018-12-13T06:52:51.326Z,991.25
2018-12-13T06:53:51.317Z,991.26
2018-12-13T06:54:51.303Z,991.25
2018-12-13T06:55:51.301Z,991.21
2018-12-13T06:56:51.281Z,991.24
2018-12-13T06:57:51.270Z,991.25
2018-12-13T06:58:51.264Z,991.23
2018-12-13T06:59:51.251Z,991.28
2018-12-13T07:00:51.235Z,991.26
2018-12-13T07:01:51.224Z,991.26
2018-12-13T07:02:51.216Z,991.24
2018-12-13T07:03:51.201Z,991.21
2018-12-13T07:04:51.201Z,991.2
2018-12-13T07:05:51.181Z,991.26
2018-12-13T07:06:51.170Z,991.26
2018-12-13T07:07:51.160Z,991.29
2018-12-13T07:08:51.148Z,991.28
2018-12-13T07:09:51.144Z,991.18
2018-12-13T07:10:51.139Z,991.18
2018-12-13T07:11:51.121Z,991.19
2018-12-13T07:12:51.103Z,991.25
2018-12-13T07:13:51.094Z,991.29
2018-12-13T07:14:51.082Z,991.25
2018-12-13T07:15:51.076Z,991.2
2018-12-13T07:16:51.057Z,991.23
2018-12-13T07:17:51.048Z,991.21
2018-12-13T07:18:51.036Z,991.24
2018-12-13T07:19:51.024Z,991.2
2018-12-13T07:20:51.012Z,991.21
2018-12-13T07:21:51.005Z,991.21
2018-12-13T07:22:50.988Z,991.22
2018-12-13T07:23:50.985Z,991.21
2018-12-13T07:24:50.967Z,991.21
2018-12-13T07:25:50.956Z,991.23
2018-12-13T07:26:50.946Z,991.23
2018-12-13T07:27:50.935Z,991.2
2018-12-13T07:28:50.922Z,991.2
2018-12-13T07:29:50.920Z,991.22
2018-12-13T07:30:50.901Z,991.21
2018-12-13T07:31:50.890Z,991.21
2018-12-13T07:32:50.890Z,991.24
2018-12-13T07:33:50.865Z,991.2
2018-12-13T07:34:50.854Z,991.19
2018-12-13T07:35:50.844Z,991.21
2018-12-13T07:36:50.832Z,991.18
2018-12-13T07:37:50.822Z,991.25
2018-12-13T07:38:50.807Z,991.2
2018-12-13T07:39:50.801Z,991.22
2018-12-13T07:40:50.789Z,991.2
2018-12-13T07:41:50.776Z,991.19
2018-12-13T07:42:50.765Z,991.22
2018-12-13T07:43:50.771Z,991.15
2018-12-13T07:44:50.744Z,991.18
2018-12-13T07:45:50.735Z,991.11
2018-12-13T07:46:50.725Z,991.14
2018-12-13T07:47:50.713Z,991.15
2018-12-13T07:48:56.192Z,991.13
2018-12-13T07:49:50.694Z,991.11
2018-12-13T07:50:50.675Z,991.11
2018-12-13T07:51:50.662Z,991.08
2018-12-13T07:52:50.652Z,991.08
2018-12-13T07:53:50.655Z,991.11
2018-12-13T07:54:50.665Z,991.08
2018-12-13T07:55:50.621Z,991.05
2018-12-13T07:56:50.609Z,991.09
2018-12-13T07:57:50.598Z,991.1
2018-12-13T07:58:50.588Z,991.12
2018-12-13T07:59:50.577Z,991.09
2018-12-13T08:00:50.562Z,991.1
2018-12-13T08:01:50.552Z,991.15
2018-12-13T08:02:50.542Z,991.15
2018-12-13T08:03:50.532Z,991.13
2018-12-13T08:04:50.517Z,991.15
2018-12-13T08:05:50.519Z,991.11
2018-12-13T08:06:50.495Z,991.14
2018-12-13T08:07:50.488Z,991.15
2018-12-13T08:08:50.473Z,991.13
2018-12-13T08:09:50.462Z,991.17
2018-12-13T08:10:50.460Z,991.2
2018-12-13T08:11:50.451Z,991.16
2018-12-13T08:12:50.435Z,991.15
2018-12-13T08:13:50.418Z,991.13
2018-12-13T08:14:50.409Z,991.17
2018-12-13T08:15:50.395Z,991.16
2018-12-13T08:16:50.384Z,991.15
2018-12-13T08:17:50.373Z,991.13
2018-12-13T08:18:50.364Z,991.14
2018-12-13T08:19:50.351Z,991.14
2018-12-13T08:20:50.340Z,991.16
2018-12-13T08:21:50.331Z,991.13
2018-12-13T08:22:50.322Z,991.14
2018-12-13T08:23:50.309Z,991.19
2018-12-13T08:24:50.295Z,991.1
2018-12-13T08:25:50.285Z,991.07
2018-12-13T08:26:50.275Z,991.11
2018-12-13T08:27:50.265Z,991
2018-12-13T08:28:50.254Z,991.06
2018-12-13T08:29:50.246Z,991.01
2018-12-13T08:30:50.232Z,991.06
2018-12-13T08:31:50.218Z,991
2018-12-13T08:32:50.210Z,991.04
2018-12-13T08:33:50.196Z,990.96
2018-12-13T08:34:50.189Z,990.97
2018-12-13T08:35:50.174Z,990.97
2018-12-13T08:36:50.164Z,990.92
2018-12-13T08:37:50.163Z,990.96
2018-12-13T08:38:50.153Z,990.96
2018-12-13T08:39:50.129Z,991.01
2018-12-13T08:40:50.119Z,990.94
2018-12-13T08:41:50.111Z,991.06
2018-12-13T08:42:50.094Z,991.03
2018-12-13T08:43:50.102Z,991.06
2018-12-13T08:44:50.079Z,991.05
2018-12-13T08:45:50.069Z,991.05
2018-12-13T08:46:50.062Z,991.05
2018-12-13T08:47:50.046Z,990.99
2018-12-13T08:48:50.034Z,991.02
2018-12-13T08:49:50.023Z,991.02
2018-12-13T08:50:50.011Z,990.99
2018-12-13T08:51:50.001Z,990.96
2018-12-13T08:52:49.989Z,990.92
2018-12-13T08:53:49.977Z,990.91
2018-12-13T08:54:49.971Z,990.94
2018-12-13T08:55:49.960Z,990.89
2018-12-13T08:56:49.953Z,990.98
2018-12-13T08:57:49.937Z,990.92
2018-12-13T08:58:49.926Z,990.99
2018-12-13T08:59:49.919Z,990.99
2018-12-13T09:00:49.905Z,990.99
2018-12-13T09:01:49.892Z,990.99
2018-12-13T09:02:49.882Z,990.96
2018-12-13T09:03:49.872Z,990.91
2018-12-13T09:04:49.857Z,990.95
2018-12-13T09:05:49.850Z,990.92
2018-12-13T09:06:49.837Z,990.97
2018-12-13T09:07:49.827Z,990.96
2018-12-13T09:08:49.813Z,990.97
2018-12-13T09:09:49.806Z,991
2018-12-13T09:10:49.794Z,990.95
2018-12-13T09:11:49.786Z,990.88
2018-12-13T09:12:49.773Z,990.93
2018-12-13T09:13:49.763Z,990.93
2018-12-13T09:14:49.752Z,991
2018-12-13T09:15:49.741Z,991.01
2018-12-13T09:16:49.730Z,991.01
2018-12-13T09:17:49.721Z,990.95
2018-12-13T09:18:49.711Z,991.04
2018-12-13T09:19:49.702Z,991.02
2018-12-13T09:20:49.687Z,990.99
2018-12-13T09:21:49.690Z,991
2018-12-13T09:22:49.729Z,991.03
2018-12-13T09:23:49.653Z,990.96
2018-12-13T09:24:49.647Z,990.93
2018-12-13T09:25:49.636Z,990.99
2018-12-13T09:26:49.625Z,990.97
2018-12-13T09:27:49.618Z,990.99
2018-12-13T09:28:49.604Z,990.95
2018-12-13T09:29:49.593Z,990.94
2018-12-13T09:30:49.581Z,990.98
2018-12-13T09:31:49.568Z,990.94
2018-12-13T09:32:49.559Z,990.93
2018-12-13T09:33:49.548Z,990.92
2018-12-13T09:34:49.536Z,990.95
2018-12-13T09:35:49.531Z,990.97
2018-12-13T09:36:49.525Z,990.97
2018-12-13T09:37:49.507Z,990.96
2018-12-13T09:38:49.492Z,990.95
2018-12-13T09:39:49.485Z,990.95
2018-12-13T09:40:49.475Z,990.92
2018-12-13T09:41:49.464Z,990.92
2018-12-13T09:42:49.449Z,990.93
2018-12-13T09:43:49.438Z,990.91
2018-12-13T09:44:49.428Z,990.87
2018-12-13T09:45:49.418Z,990.89
2018-12-13T09:46:49.406Z,990.9
2018-12-13T09:47:49.397Z,990.95
2018-12-13T09:48:49.488Z,990.81
2018-12-13T09:49:49.381Z,990.83
2018-12-13T09:50:49.365Z,990.9
2018-12-13T09:51:49.368Z,990.88
2018-12-13T09:52:49.341Z,990.85
2018-12-13T09:53:49.337Z,990.89
2018-12-13T09:54:49.328Z,990.86
2018-12-13T09:55:49.323Z,990.83
2018-12-13T09:56:49.298Z,990.85
2018-12-13T09:57:49.288Z,990.82
2018-12-13T09:58:49.280Z,990.81
2018-12-13T09:59:49.271Z,990.76
2018-12-13T10:00:49.253Z,990.75
2018-12-13T10:01:49.239Z,990.79
2018-12-13T10:02:49.230Z,990.82
2018-12-13T10:03:49.222Z,990.87
2018-12-13T10:04:49.223Z,990.68
2018-12-13T10:05:49.198Z,990.71
2018-12-13T10:06:49.186Z,990.7
2018-12-13T10:07:49.177Z,990.68
2018-12-13T10:08:49.168Z,990.7
2018-12-13T10:09:49.176Z,990.62
2018-12-13T10:10:49.187Z,990.6
2018-12-13T10:11:49.134Z,990.58
2018-12-13T10:12:49.121Z,990.58
2018-12-13T10:13:49.111Z,990.57
2018-12-13T10:14:49.107Z,990.56
2018-12-13T10:15:49.106Z,990.59
2018-12-13T10:16:49.075Z,990.59
2018-12-13T10:17:49.064Z,990.59
2018-12-13T10:18:49.057Z,990.62
2018-12-13T10:19:49.047Z,990.63
2018-12-13T10:20:49.036Z,990.58
2018-12-13T10:21:49.022Z,990.61
2018-12-13T10:22:49.044Z,990.55
2018-12-13T10:23:49.001Z,990.56
2018-12-13T10:24:48.993Z,990.55
2018-12-13T10:25:48.980Z,990.53
2018-12-13T10:26:48.972Z,990.51
2018-12-13T10:27:48.959Z,990.58
2018-12-13T10:28:48.948Z,990.52
2018-12-13T10:29:48.943Z,990.5
2018-12-13T10:30:48.932Z,990.47
2018-12-13T10:31:48.919Z,990.45
2018-12-13T10:32:48.915Z,990.47
2018-12-13T10:33:48.899Z,990.51
2018-12-13T10:34:48.889Z,990.43
2018-12-13T10:35:48.876Z,990.47
2018-12-13T10:36:48.870Z,990.44
2018-12-13T10:37:48.877Z,990.44
2018-12-13T10:38:52.892Z,990.41
2018-12-13T10:39:48.834Z,990.42
2018-12-13T10:40:48.825Z,990.46
2018-12-13T10:41:48.816Z,990.39
2018-12-13T10:42:48.810Z,990.39
2018-12-13T10:43:48.813Z,990.39
2018-12-13T10:44:48.785Z,990.38
2018-12-13T10:45:48.777Z,990.36
2018-12-13T10:46:48.763Z,990.36
2018-12-13T10:47:48.750Z,990.39
2018-12-13T10:48:48.762Z,990.32
2018-12-13T10:49:48.733Z,990.36
2018-12-13T10:50:48.723Z,990.34
2018-12-13T10:51:48.717Z,990.33
2018-12-13T10:52:48.703Z,990.37
2018-12-13T10:53:48.696Z,990.38
2018-12-13T10:54:48.682Z,990.34
2018-12-13T10:55:48.670Z,990.34
2018-12-13T10:56:48.661Z,990.3
2018-12-13T10:57:48.649Z,990.28
2018-12-13T10:58:48.641Z,990.27
2018-12-13T10:59:48.646Z,990.18
2018-12-13T11:00:48.622Z,990.22
2018-12-13T11:01:48.608Z,990.12
2018-12-13T11:02:48.599Z,990.15
2018-12-13T11:03:48.586Z,990.14
2018-12-13T11:04:48.583Z,990.11
2018-12-13T11:05:48.568Z,990.1
2018-12-13T11:06:48.555Z,990.11
2018-12-13T11:07:48.545Z,990.15
2018-12-13T11:08:48.532Z,990.12
2018-12-13T11:09:48.534Z,990.09
2018-12-13T11:10:48.531Z,990.13
2018-12-13T11:11:48.504Z,990.12
2018-12-13T11:12:48.491Z,990.12
2018-12-13T11:13:48.481Z,990.14
2018-12-13T11:14:48.474Z,990.08
2018-12-13T11:15:48.464Z,990.16
2018-12-13T11:16:48.476Z,990.06
2018-12-13T11:17:48.441Z,990.04
2018-12-13T11:18:48.428Z,990.07
2018-12-13T11:19:48.420Z,990.06
2018-12-13T11:20:48.410Z,990.09
2018-12-13T11:21:48.415Z,990.08
2018-12-13T11:22:48.389Z,990.02
2018-12-13T11:23:48.379Z,990.03
2018-12-13T11:24:48.628Z,990.04
2018-12-13T11:25:48.358Z,990.06
2018-12-13T11:26:48.360Z,990.03
2018-12-13T11:27:48.341Z,989.96
2018-12-13T11:28:48.329Z,990.03
2018-12-13T11:29:48.317Z,990
2018-12-13T11:30:48.308Z,990.01
2018-12-13T11:31:48.298Z,989.99
2018-12-13T11:32:48.304Z,990.02
2018-12-13T11:33:48.277Z,990.01
2018-12-13T11:34:48.302Z,989.99
2018-12-13T11:35:48.262Z,990.02
2018-12-13T11:36:48.246Z,989.96
2018-12-13T11:37:48.235Z,989.99
2018-12-13T11:38:48.226Z,989.99
2018-12-13T11:39:48.213Z,989.92
2018-12-13T11:40:48.203Z,989.91
2018-12-13T11:41:48.193Z,989.98
2018-12-13T11:42:48.182Z,990
2018-12-13T11:43:48.179Z,989.93
2018-12-13T11:44:48.164Z,989.96
2018-12-13T11:45:48.152Z,989.92
2018-12-13T11:46:48.151Z,989.89
2018-12-13T11:47:48.130Z,989.86
2018-12-13T11:48:48.115Z,989.89
2018-12-13T11:49:48.104Z,989.99
2018-12-13T11:50:48.096Z,989.97
2018-12-13T11:51:48.092Z,989.94
2018-12-13T11:52:48.077Z,989.96
2018-12-13T11:53:48.065Z,989.91
2018-12-13T11:54:49.007Z,989.9
2018-12-13T11:55:48.048Z,989.99
2018-12-13T11:56:48.043Z,989.95
2018-12-13T11:57:48.022Z,989.98
2018-12-13T11:58:48.022Z,989.87
2018-12-13T11:59:48.003Z,989.95
2018-12-13T12:00:47.992Z,989.88
2018-12-13T12:01:47.983Z,989.9
2018-12-13T12:02:47.975Z,989.93
2018-12-13T12:03:47.962Z,989.91
2018-12-13T12:04:47.951Z,989.95
2018-12-13T12:05:47.956Z,989.93
2018-12-13T12:06:47.932Z,989.94
2018-12-13T12:07:47.919Z,989.9
2018-12-13T12:08:47.908Z,989.98
2018-12-13T12:09:47.897Z,989.97
2018-12-13T12:10:47.891Z,989.96
2018-12-13T12:11:47.876Z,989.96
2018-12-13T12:12:47.867Z,990
2018-12-13T12:13:47.863Z,990.04
2018-12-13T12:14:47.851Z,989.99
2018-12-13T12:15:47.843Z,989.96
2018-12-13T12:16:47.846Z,989.91
2018-12-13T12:17:47.814Z,989.97
2018-12-13T12:18:47.806Z,989.95
2018-12-13T12:19:47.790Z,989.93
2018-12-13T12:20:47.784Z,989.87
2018-12-13T12:21:47.783Z,989.94
2018-12-13T12:22:47.760Z,989.92
2018-12-13T12:23:47.760Z,989.89
2018-12-13T12:24:47.744Z,989.94
2018-12-13T12:25:47.734Z,989.87
2018-12-13T12:26:47.729Z,989.85
2018-12-13T12:27:47.730Z,989.8
2018-12-13T12:28:47.706Z,989.86
2018-12-13T12:29:47.683Z,989.84
2018-12-13T12:30:47.677Z,989.85
2018-12-13T12:31:47.662Z,989.81